Time;durP1;ratioP1;P1;durP2;ratioP2;P2;SDS_P1;SDS_P2;PMS_P1;PMS_P2;Temp;Humidity;BMP_temperature;BMP_pressure;BME280_temperature;BME280_humidity;BME280_pressure;Samples;Min_cycle;Max_cycle;Signal;HPM_P1;HPM_P2
2021/04/23 02:45:41;;;;;;;21.25;17.27;;;5.50;99.90;;;;;;5836294;23;89677;-86
2021/04/23 02:48:08;;;;;;;20.27;17.15;;;5.50;99.90;;;;;;4950427;28;88554;-88
2021/04/23 02:50:34;;;;;;;18.38;16.65;;;5.50;99.90;;;;;;4950809;28;90237;-87
2021/04/23 02:53:01;;;;;;;18.92;14.98;;;5.50;99.90;;;;;;4951655;28;86910;-87
2021/04/23 02:55:27;;;;;;;17.75;15.60;;;5.50;99.90;;;;;;4947804;28;86923;-89
2021/04/23 02:57:59;;;;;;;18.77;15.38;;;5.50;99.90;;;;;;4932636;28;87780;-88
2021/04/23 03:00:28;;;;;;;21.65;16.35;;;5.50;99.90;;;;;;4947042;28;87500;-88
2021/04/23 03:02:54;;;;;;;23.17;18.00;;;5.40;99.90;;;;;;4970740;28;86180;-88
2021/04/23 03:05:21;;;;;;;21.50;19.42;;;5.40;99.90;;;;;;4972271;28;86115;-88
2021/04/23 03:07:51;;;;;;;26.30;23.90;;;5.40;99.90;;;;;;4972155;28;89709;-87
2021/04/23 03:10:18;;;;;;;33.70;30.88;;;5.30;99.90;;;;;;4972401;28;86762;-85
2021/04/23 03:12:45;;;;;;;41.88;38.75;;;5.30;99.90;;;;;;4972806;28;87498;-86
2021/04/23 03:15:12;;;;;;;39.63;37.05;;;5.30;99.90;;;;;;4953545;28;87028;-86
2021/04/23 03:17:43;;;;;;;49.70;46.53;;;5.30;99.90;;;;;;4951646;28;86960;-86
2021/04/23 03:20:15;;;;;;;36.83;34.13;;;5.30;99.90;;;;;;4949249;28;88332;-86
2021/04/23 03:22:47;;;;;;;57.80;54.42;;;5.20;99.90;;;;;;4949757;28;86612;-87
2021/04/23 03:25:14;;;;;;;67.97;64.07;;;5.20;99.90;;;;;;4931238;28;87270;-85
2021/04/23 03:31:05;;;;;;;55.70;52.05;;;5.20;99.90;;;;;;4948104;28;86033;-87
2021/04/23 03:33:42;;;;;;;66.93;63.00;;;5.10;99.90;;;;;;4965629;28;86685;-86
2021/04/23 03:36:10;;;;;;;56.22;52.58;;;5.10;99.90;;;;;;4960416;28;86556;-87
2021/04/23 03:38:38;;;;;;;46.92;44.05;;;5.10;99.90;;;;;;4957018;28;88656;-87
2021/04/23 03:41:10;;;;;;;57.83;54.28;;;5.00;99.90;;;;;;4961305;28;88335;-87
2021/04/23 03:43:40;;;;;;;42.05;39.08;;;5.00;99.90;;;;;;4954102;28;86012;-84
2021/04/23 03:46:07;;;;;;;41.92;39.10;;;5.00;99.90;;;;;;4952861;28;86335;-85
2021/04/23 03:48:33;;;;;;;34.85;32.42;;;4.90;99.90;;;;;;4962169;28;86959;-85
2021/04/23 03:51:02;;;;;;;28.08;25.88;;;4.90;99.90;;;;;;4944572;28;87826;-88
2021/04/23 03:53:28;;;;;;;22.60;20.67;;;4.90;99.90;;;;;;4957285;28;86935;-87
2021/04/23 03:55:54;;;;;;;17.08;15.05;;;5.00;99.90;;;;;;4955261;28;85889;-87
2021/04/23 03:58:21;;;;;;;15.13;13.57;;;4.90;99.90;;;;;;4956089;28;87581;-87
2021/04/23 04:00:48;;;;;;;14.75;12.48;;;4.90;99.90;;;;;;4958561;28;86903;-87
2021/04/23 04:03:16;;;;;;;13.88;11.80;;;4.90;99.90;;;;;;4956863;28;87679;-86
2021/04/23 04:05:43;;;;;;;14.88;12.63;;;4.90;99.90;;;;;;4959005;28;86665;-87
2021/04/23 04:08:09;;;;;;;12.85;11.50;;;4.90;99.90;;;;;;4957176;28;89628;-87
2021/04/23 04:10:38;;;;;;;14.20;12.18;;;4.90;99.90;;;;;;4961630;28;87038;-85
2021/04/23 04:13:04;;;;;;;14.98;11.55;;;4.90;99.90;;;;;;4961604;28;87150;-86
2021/04/23 04:15:31;;;;;;;13.60;12.30;;;4.80;99.90;;;;;;4963444;28;87064;-85
2021/04/23 04:17:57;;;;;;;13.82;11.70;;;4.80;99.90;;;;;;4982903;28;87178;-84
2021/04/23 04:20:25;;;;;;;14.88;12.50;;;4.90;99.90;;;;;;4953558;28;86260;-86
2021/04/23 04:22:51;;;;;;;15.77;12.02;;;4.80;99.90;;;;;;4959541;28;86498;-87
2021/04/23 04:25:28;;;;;;;14.82;11.95;;;4.80;99.90;;;;;;4951382;28;86851;-87
2021/04/23 04:27:55;;;;;;;14.60;12.52;;;4.90;99.90;;;;;;4948896;28;89369;-87
2021/04/23 04:30:22;;;;;;;15.50;12.95;;;4.90;99.90;;;;;;4950292;28;88444;-87
2021/04/23 04:32:49;;;;;;;15.98;12.05;;;4.90;99.90;;;;;;4949814;28;86721;-87
2021/04/23 04:35:15;;;;;;;13.77;12.38;;;4.80;99.90;;;;;;4949949;28;86814;-88
2021/04/23 04:37:41;;;;;;;17.50;14.50;;;4.90;99.90;;;;;;4950560;28;87372;-88
2021/04/23 04:40:10;;;;;;;16.50;14.90;;;4.90;99.90;;;;;;4946032;28;88783;-88
2021/04/23 04:42:38;;;;;;;16.88;15.02;;;;;;;;;;4946307;28;86809;-87
2021/04/23 04:45:11;;;;;;;16.05;12.90;;;5.00;99.90;;;;;;4945219;28;86420;-88
2021/04/23 04:47:37;;;;;;;16.80;15.27;;;5.00;99.90;;;;;;4947724;28;88745;-87
2021/04/23 04:50:09;;;;;;;14.93;12.77;;;5.10;99.90;;;;;;4946084;28;89638;-88
2021/04/23 04:52:37;;;;;;;15.50;14.00;;;5.10;99.90;;;;;;4945231;28;87630;-87
2021/04/23 04:55:05;;;;;;;19.42;17.63;;;5.10;99.90;;;;;;4946075;28;86682;-89
2021/04/23 04:57:33;;;;;;;19.48;17.58;;;5.20;99.90;;;;;;4948974;28;86676;-87
2021/04/23 04:59:59;;;;;;;24.88;22.98;;;5.20;99.90;;;;;;4944721;28;87073;-89
2021/04/23 05:02:25;;;;;;;33.17;30.92;;;;;;;;;;4944258;28;86910;-88
2021/04/23 05:04:51;;;;;;;50.90;47.55;;;;;;;;;;4945295;28;86820;-88
2021/04/23 05:07:18;;;;;;;54.65;51.38;;;;;;;;;;4941066;28;87148;-87
2021/04/23 05:09:55;;;;;;;60.30;56.88;;;5.50;99.90;;;;;;4943207;28;87573;-88
2021/04/23 05:12:22;;;;;;;59.10;55.38;;;;;;;;;;4948775;28;87053;-89
2021/04/23 05:14:48;;;;;;;57.53;54.05;;;;;;;;;;4947317;28;87308;-89
2021/04/23 05:17:14;;;;;;;52.38;48.92;;;;;;;;;;4958809;28;89544;-89
2021/04/23 05:19:40;;;;;;;53.75;50.35;;;;;;;;;;4965535;28;87402;-88
2021/04/23 05:22:06;;;;;;;46.70;43.92;;;6.00;99.90;;;;;;4955923;28;86629;-87
2021/04/23 05:24:33;;;;;;;35.17;32.55;;;6.00;99.90;;;;;;4944076;28;86975;-88
2021/04/23 05:26:59;;;;;;;37.53;34.92;;;6.20;99.90;;;;;;4951877;28;88070;-88
2021/04/23 05:29:24;;;;;;;24.88;22.60;;;6.20;99.90;;;;;;4954654;28;87494;-87
2021/04/23 05:32:01;;;;;;;18.27;16.45;;;6.40;99.90;;;;;;4950278;28;87043;-88
2021/04/23 05:34:29;;;;;;;15.32;13.20;;;6.60;99.90;;;;;;4946799;28;86089;-87
2021/04/23 05:36:55;;;;;;;15.80;14.25;;;;;;;;;;4947143;28;87397;-88
2021/04/23 05:39:21;;;;;;;26.38;24.13;;;6.90;99.90;;;;;;4942480;28;87488;-87
2021/04/23 05:41:47;;;;;;;54.60;51.28;;;6.80;99.90;;;;;;4946267;28;87794;-90
2021/04/23 05:47:42;;;;;;;27.88;25.88;;;7.00;99.90;;;;;;4980227;23;86335;-87
2021/04/23 05:50:12;;;;;;;39.72;37.05;;;7.20;99.20;;;;;;4983387;28;86640;-87
2021/04/23 05:52:38;;;;;;;32.30;29.90;;;7.30;98.20;;;;;;4982566;28;86800;-86
2021/04/23 05:55:07;;;;;;;32.83;30.60;;;7.40;98.00;;;;;;4984184;28;86786;-86
2021/04/23 05:57:33;;;;;;;21.23;19.23;;;;;;;;;;4961280;28;91895;-87
2021/04/23 05:59:59;;;;;;;18.10;16.35;;;;;;;;;;4980651;28;88400;-87
2021/04/23 06:02:25;;;;;;;13.68;12.45;;;7.70;95.60;;;;;;4966583;28;87083;-86
2021/04/23 06:04:51;;;;;;;17.40;15.70;;;7.90;95.70;;;;;;4965791;28;87236;-86
2021/04/23 06:08:04;;;;;;;24.75;22.50;;;8.00;95.00;;;;;;4964840;28;89576;-87
2021/04/23 06:10:31;;;;;;;15.77;14.27;;;8.20;94.50;;;;;;4947646;28;89532;-86
2021/04/23 06:13:39;;;;;;;18.65;16.90;;;8.30;94.40;;;;;;4971690;28;87051;-87
2021/04/23 06:16:05;;;;;;;16.30;14.77;;;;;;;;;;4985620;28;86865;-86
2021/04/23 06:18:30;;;;;;;13.00;11.40;;;8.60;93.40;;;;;;4984957;28;87598;-87
2021/04/23 06:20:56;;;;;;;15.30;12.35;;;8.70;93.20;;;;;;4967319;28;86884;-87
2021/04/23 06:23:28;;;;;;;14.25;12.98;;;8.80;92.60;;;;;;4945731;28;86679;-86
2021/04/23 06:25:54;;;;;;;16.23;14.65;;;;;;;;;;4946776;28;86071;-87
2021/04/23 06:28:20;;;;;;;17.67;16.10;;;;;;;;;;4945951;28;88247;-87
2021/04/23 06:30:46;;;;;;;18.50;16.77;;;9.20;91.40;;;;;;4945587;28;86514;-87
2021/04/23 06:33:51;;;;;;;16.92;15.23;;;9.30;91.00;;;;;;4944792;28;87728;-87
2021/04/23 06:36:19;;;;;;;15.25;13.75;;;9.40;90.50;;;;;;4945292;28;86921;-87
2021/04/23 06:38:45;;;;;;;15.85;14.45;;;9.50;90.80;;;;;;4943831;28;87408;-86
2021/04/23 06:41:12;;;;;;;14.02;12.75;;;9.60;90.90;;;;;;4927657;28;90704;-87
2021/04/23 06:43:38;;;;;;;14.30;12.77;;;9.80;90.30;;;;;;4945021;28;86685;-87
2021/04/23 07:12:31;;;;;;;38.05;35.55;;;11.10;87.60;;;;;;516305;26;87870;-86
2021/04/23 07:14:57;;;;;;;74.80;70.60;;;11.30;89.20;;;;;;4984847;28;88901;-87
2021/04/23 07:17:22;;;;;;;72.93;69.05;;;11.40;88.70;;;;;;4987971;28;86841;-87
2021/04/23 07:19:49;;;;;;;65.40;61.67;;;;;;;;;;4987996;28;86286;-87
2021/04/23 07:22:16;;;;;;;27.25;25.05;;;11.60;87.90;;;;;;4988239;28;87193;-87
2021/04/23 07:24:43;;;;;;;22.02;20.20;;;12.10;84.90;;;;;;4987841;28;87486;-87
2021/04/23 07:27:09;;;;;;;23.52;21.92;;;;;;;;;;4987650;28;87689;-87
2021/04/23 07:29:36;;;;;;;29.95;28.10;;;12.40;83.40;;;;;;4986871;28;86756;-87
2021/04/23 07:32:02;;;;;;;28.50;26.50;;;12.90;83.80;;;;;;4988032;28;87022;-88
2021/04/23 07:34:28;;;;;;;17.50;16.08;;;13.40;80.60;;;;;;4986735;28;86838;-87
2021/04/23 07:36:56;;;;;;;23.45;21.75;;;14.60;78.00;;;;;;4986656;28;86804;-88
2021/04/23 07:42:47;;;;;;;55.75;52.75;;;18.40;59.70;;;;;;4983532;28;86828;-88
2021/04/23 07:47:45;;;;;;;44.83;42.22;;;22.00;49.60;;;;;;5220371;22;111158;-88
2021/04/23 07:50:17;;;;;;;29.45;27.38;;;24.30;50.50;;;;;;4966649;28;86875;-88
2021/04/23 07:52:43;;;;;;;30.35;28.27;;;24.60;43.00;;;;;;4966427;28;88255;-88
2021/04/23 07:55:10;;;;;;;95.85;91.30;;;26.00;41.00;;;;;;4966327;28;88878;-88
2021/04/23 07:57:36;;;;;;;54.83;51.92;;;27.20;39.40;;;;;;4966868;28;86844;-89
2021/04/23 08:03:24;;;;;;;43.38;40.50;;;29.30;33.40;;;;;;4963341;28;87186;-89
2021/04/23 08:05:49;;;;;;;104.32;99.38;;;30.00;33.90;;;;;;4966848;28;87077;-88
2021/04/23 08:08:16;;;;;;;98.63;94.07;;;30.80;32.40;;;;;;4966304;28;86813;-88
2021/04/23 08:10:42;;;;;;;54.10;51.03;;;31.30;31.30;;;;;;4966854;28;85998;-88
2021/04/23 08:16:42;;;;;;;53.67;50.88;;;32.70;29.30;;;;;;4963627;28;86832;-86
2021/04/23 08:22:29;;;;;;;75.50;72.10;;;33.30;28.60;;;;;;4963197;28;86465;-89
2021/04/23 08:24:55;;;;;;;107.15;102.13;;;33.50;29.20;;;;;;4966049;28;87090;-86
2021/04/23 08:27:21;;;;;;;166.38;158.98;;;33.90;28.50;;;;;;4965709;28;88645;-89
2021/04/23 08:29:46;;;;;;;76.63;72.80;;;34.10;28.40;;;;;;4947790;28;86936;-89
2021/04/23 08:32:12;;;;;;;52.70;49.83;;;34.40;28.10;;;;;;4965759;28;86885;-89
2021/04/23 08:34:38;;;;;;;44.83;42.25;;;34.90;28.00;;;;;;4966253;28;87793;-89
2021/04/23 08:37:04;;;;;;;31.17;29.30;;;35.30;27.70;;;;;;4966610;28;86460;-90
2021/04/23 08:39:29;;;;;;;35.25;33.25;;;35.60;27.60;;;;;;4966747;28;86678;-87
2021/04/23 08:41:55;;;;;;;143.48;137.25;;;;;;;;;;4965939;28;86759;-87
2021/04/23 08:44:21;;;;;;;116.95;111.75;;;36.10;26.60;;;;;;4964986;28;88160;-87
2021/04/23 08:46:49;;;;;;;62.75;59.63;;;36.80;26.40;;;;;;5605710;22;88870;-87
2021/04/23 08:57:33;;;;;;;66.82;63.50;;;38.00;25.30;;;;;;4944709;28;87343;-87
2021/04/23 09:03:34;;;;;;;165.13;158.32;;;38.60;25.20;;;;;;4942699;28;86689;-87
2021/04/23 09:09:44;;;;;;;50.10;47.65;;;38.40;24.90;;;;;;4943218;28;86781;-87
2021/04/23 09:23:45;;;;;;;55.63;53.08;;;39.70;24.00;;;;;;4947348;28;88143;-87
2021/04/23 10:30:16;;;;;;;45.35;42.95;;;44.00;22.10;;;;;;5851750;22;87685;-89
2021/04/23 10:32:42;;;;;;;67.15;63.90;;;43.70;22.10;;;;;;4983089;28;86927;-90
2021/04/23 10:35:08;;;;;;;39.38;37.15;;;43.90;22.30;;;;;;4965741;28;88506;-89
2021/04/23 10:37:34;;;;;;;33.58;31.55;;;43.90;21.90;;;;;;4984290;28;86751;-89
2021/04/23 10:40:24;;;;;;;29.25;27.60;;;43.90;22.40;;;;;;4983761;28;86524;-91
2021/04/23 10:42:54;;;;;;;;;;;44.40;22.20;;;;;;4984891;28;86993;-89
2021/04/23 10:47:57;;;;;;;154.23;147.75;;;44.10;21.70;;;;;;5257186;22;88222;-89
2021/04/23 10:50:42;;;;;;;99.85;95.47;;;44.10;20.90;;;;;;4968275;28;87602;-89
2021/04/23 10:53:16;;;;;;;98.20;93.95;;;44.20;21.30;;;;;;4950136;28;86924;-89
2021/04/23 10:55:51;;;;;;;145.10;139.20;;;44.80;21.30;;;;;;4949713;28;90202;-90
2021/04/23 10:58:30;;;;;;;60.28;57.47;;;44.90;21.30;;;;;;4950433;28;88843;-90
2021/04/23 11:01:21;;;;;;;39.33;37.33;;;45.10;20.80;;;;;;4980255;28;87037;-90
2021/04/23 11:04:08;;;;;;;34.80;32.90;;;44.80;21.00;;;;;;4970670;28;86232;-90
2021/04/23 11:06:40;;;;;;;48.70;46.50;;;44.70;20.70;;;;;;4960809;28;90538;-90
2021/04/23 11:09:15;;;;;;;37.42;35.40;;;44.80;20.60;;;;;;4961649;28;90281;-91
2021/04/23 11:11:43;;;;;;;36.70;35.05;;;45.20;20.90;;;;;;4982814;28;87861;-90
2021/04/23 11:14:17;;;;;;;36.33;34.58;;;45.20;20.50;;;;;;4973583;28;87898;-91
2021/04/23 11:16:43;;;;;;;67.05;63.40;;;45.50;20.60;;;;;;4970856;28;88709;-89
2021/04/23 11:19:21;;;;;;;80.43;76.90;;;45.30;20.90;;;;;;4984435;28;87754;-90
2021/04/23 11:22:10;;;;;;;74.53;71.43;;;45.40;19.50;;;;;;4974786;28;86814;-90
2021/04/23 11:24:36;;;;;;;60.80;58.00;;;45.40;19.60;;;;;;4968385;28;87061;-87
2021/04/23 11:27:07;;;;;;;50.42;47.95;;;44.80;19.50;;;;;;4993680;28;86877;-89
2021/04/23 11:33:12;;;;;;;55.47;52.72;;;43.80;19.70;;;;;;5007276;28;86844;-90
2021/04/23 11:39:11;;;;;;;54.47;51.97;;;43.80;20.10;;;;;;5008139;28;87852;-88
2021/04/23 11:51:06;;;;;;;330.67;316.45;;;44.00;19.40;;;;;;4980763;28;86775;-89
2021/04/23 11:53:32;;;;;;;247.38;236.50;;;43.80;19.60;;;;;;4983704;28;87141;-88
2021/04/23 11:55:59;;;;;;;319.75;305.83;;;43.80;20.10;;;;;;4983769;28;87674;-88
2021/04/23 11:58:27;;;;;;;338.52;323.73;;;43.70;20.10;;;;;;4981560;28;86084;-90
2021/04/23 12:01:00;;;;;;;284.77;272.67;;;43.90;20.10;;;;;;4954082;28;91084;-90
2021/04/23 12:03:26;;;;;;;244.13;232.63;;;44.00;19.90;;;;;;4965409;28;87623;-89
2021/04/23 12:05:55;;;;;;;162.57;156.00;;;42.80;20.30;;;;;;4978831;28;87839;-88
2021/04/23 12:08:23;;;;;;;255.88;243.75;;;42.40;20.10;;;;;;4961296;28;87201;-88
2021/04/23 12:10:56;;;;;;;123.43;118.45;;;42.10;19.40;;;;;;4979310;28;87342;-88
2021/04/23 12:13:33;;;;;;;92.95;88.63;;;42.30;19.80;;;;;;4985280;28;87170;-89
2021/04/23 12:16:17;;;;;;;112.00;107.25;;;41.90;20.20;;;;;;4968327;28;89001;-89
2021/04/23 12:19:03;;;;;;;273.67;260.80;;;41.60;20.00;;;;;;4985530;28;86809;-88
2021/04/23 12:21:31;;;;;;;71.75;68.53;;;41.30;19.70;;;;;;4984410;28;88077;-88
2021/04/23 12:23:57;;;;;;;85.30;81.50;;;41.30;19.80;;;;;;4983287;28;86322;-89
2021/04/23 12:26:22;;;;;;;60.25;57.45;;;40.60;20.20;;;;;;4968786;28;86917;-89
2021/04/23 12:29:07;;;;;;;88.28;84.38;;;40.70;20.30;;;;;;4985525;28;86837;-89
2021/04/23 12:31:40;;;;;;;129.80;124.38;;;40.80;20.70;;;;;;4986140;28;88011;-89
2021/04/23 12:34:10;;;;;;;102.20;97.82;;;39.10;20.40;;;;;;4980957;28;89615;-89
2021/04/23 12:40:30;;;;;;;78.40;74.82;;;38.70;20.50;;;;;;4981884;28;86714;-89
2021/04/23 12:42:57;;;;;;;48.95;46.60;;;38.80;21.10;;;;;;4945534;28;89478;-90
2021/04/23 12:45:23;;;;;;;62.08;58.97;;;39.40;20.20;;;;;;4963686;28;87671;-90
2021/04/23 12:47:49;;;;;;;74.85;71.30;;;39.40;20.20;;;;;;4945506;28;86887;-88
2021/04/23 12:50:15;;;;;;;65.03;62.10;;;38.90;20.50;;;;;;4951615;28;86226;-90
2021/04/23 12:52:44;;;;;;;79.32;75.78;;;38.90;20.90;;;;;;4975326;28;87880;-91
2021/04/23 12:55:10;;;;;;;67.93;64.80;;;38.40;20.70;;;;;;4965611;28;87162;-89
2021/04/23 12:57:40;;;;;;;66.95;63.72;;;38.50;20.60;;;;;;4959205;28;87880;-89
2021/04/23 13:00:49;;;;;;;75.82;72.47;;;38.50;20.60;;;;;;4946097;28;86876;-89
2021/04/23 13:03:23;;;;;;;69.80;66.63;;;38.50;20.50;;;;;;4951966;28;88325;-90
2021/04/23 13:05:48;;;;;;;64.70;61.75;;;37.80;20.20;;;;;;4948530;28;87348;-90
2021/04/23 13:08:19;;;;;;;75.80;72.47;;;37.80;20.60;;;;;;4941247;28;87034;-89
2021/04/23 13:10:49;;;;;;;59.80;57.10;;;37.80;20.90;;;;;;4957251;28;87276;-88
2021/04/23 13:13:21;;;;;;;65.05;62.08;;;37.60;20.70;;;;;;4946403;28;88307;-89
2021/04/23 13:16:06;;;;;;;80.75;77.03;;;37.40;20.90;;;;;;4955006;28;88901;-89
2021/04/23 13:18:32;;;;;;;32.95;31.15;;;37.40;20.90;;;;;;4947973;28;86954;-89
2021/04/23 13:21:09;;;;;;;58.50;55.17;;;37.20;21.30;;;;;;4947593;28;87002;-90
2021/04/23 13:23:46;;;;;;;45.42;43.22;;;36.70;21.60;;;;;;4963942;28;87985;-88
2021/04/23 13:26:28;;;;;;;44.45;42.38;;;36.00;21.20;;;;;;4963749;28;87368;-88
2021/04/23 13:29:06;;;;;;;35.13;33.42;;;35.60;21.40;;;;;;4958520;28;86455;-89
2021/04/23 13:31:33;;;;;;;63.95;61.10;;;36.00;21.20;;;;;;4965325;28;86828;-87
2021/04/23 13:34:08;;;;;;;32.03;30.52;;;35.70;20.20;;;;;;4983747;28;86982;-89
2021/04/23 13:36:35;;;;;;;37.15;35.35;;;35.70;21.20;;;;;;4962162;28;86819;-88
2021/04/23 13:39:07;;;;;;;65.40;62.25;;;35.30;20.80;;;;;;4960947;28;86470;-88
2021/04/23 13:41:40;;;;;;;33.88;32.08;;;35.00;20.40;;;;;;4964272;28;86210;-90
2021/04/23 13:44:22;;;;;;;34.30;32.58;;;34.40;21.30;;;;;;4967027;28;87388;-89
2021/04/23 13:46:57;;;;;;;27.88;26.48;;;34.00;20.90;;;;;;4981996;28;88633;-89
2021/04/23 13:49:29;;;;;;;61.20;58.58;;;33.40;21.40;;;;;;4973849;28;87937;-88
2021/04/23 13:52:05;;;;;;;80.40;77.05;;;33.20;21.80;;;;;;4947130;28;87104;-88
2021/04/23 13:54:31;;;;;;;53.65;51.08;;;33.30;21.80;;;;;;4963771;28;86533;-87
2021/04/23 13:57:06;;;;;;;31.13;29.42;;;33.30;21.70;;;;;;4946863;28;90160;-88
2021/04/23 13:59:32;;;;;;;28.98;27.55;;;33.30;22.10;;;;;;4964445;28;86935;-87
2021/04/23 14:02:21;;;;;;;31.45;29.98;;;33.10;22.10;;;;;;4951369;28;87082;-88
2021/04/23 14:04:49;;;;;;;91.55;87.72;;;32.70;22.90;;;;;;4944850;28;87227;-87
2021/04/23 14:07:19;;;;;;;103.72;99.47;;;32.40;22.50;;;;;;4955694;28;87509;-88
2021/04/23 14:09:46;;;;;;;22.83;21.63;;;32.50;22.00;;;;;;4968653;28;86943;-87
2021/04/23 14:12:17;;;;;;;34.72;33.03;;;32.40;20.90;;;;;;4968615;28;86535;-87
2021/04/23 14:14:43;;;;;;;112.40;107.63;;;31.70;22.40;;;;;;4967196;28;87847;-88
2021/04/23 14:17:14;;;;;;;194.60;187.02;;;31.40;21.90;;;;;;4948360;28;91359;-87
2021/04/23 14:19:52;;;;;;;262.35;252.80;;;31.20;22.20;;;;;;4976931;28;86912;-89
2021/04/23 14:22:19;;;;;;;203.80;195.95;;;31.10;22.40;;;;;;4958595;28;87000;-87
2021/04/23 14:24:46;;;;;;;284.25;273.60;;;30.90;21.90;;;;;;4984717;28;86881;-91
2021/04/23 14:27:12;;;;;;;95.53;91.30;;;30.70;22.60;;;;;;4960078;28;87441;-87
2021/04/23 14:29:39;;;;;;;273.48;263.63;;;30.50;22.60;;;;;;4953296;28;86924;-89
2021/04/23 14:32:05;;;;;;;91.57;87.47;;;29.80;22.40;;;;;;4943449;28;86233;-89
2021/04/23 14:35:03;;;;;;;111.07;106.35;;;29.60;23.00;;;;;;4970018;28;87830;-89
2021/04/23 14:37:28;;;;;;;243.75;233.73;;;29.80;24.10;;;;;;4970079;28;87979;-88
2021/04/23 14:39:54;;;;;;;310.90;299.08;;;29.80;23.20;;;;;;4967643;28;87923;-87
2021/04/23 14:42:20;;;;;;;279.42;268.70;;;29.60;23.50;;;;;;4968211;28;86293;-87
2021/04/23 14:44:46;;;;;;;254.05;244.35;;;29.50;23.50;;;;;;4950885;28;91071;-86
2021/04/23 14:47:13;;;;;;;266.60;255.85;;;29.30;23.00;;;;;;4966164;28;86971;-88
2021/04/23 14:49:39;;;;;;;269.35;258.67;;;29.00;23.90;;;;;;4962453;28;86930;-87
2021/04/23 14:52:05;;;;;;;173.57;166.70;;;29.00;23.20;;;;;;4975924;28;86988;-92
2021/04/23 14:54:31;;;;;;;133.13;127.82;;;28.70;22.80;;;;;;4968169;28;89030;-90
2021/04/23 14:56:57;;;;;;;110.72;106.13;;;28.50;23.40;;;;;;4997112;28;87090;-87
2021/04/23 14:59:23;;;;;;;265.08;254.95;;;28.20;22.30;;;;;;4989671;28;86877;-87
2021/04/23 15:01:49;;;;;;;165.02;158.23;;;27.60;22.90;;;;;;4998650;28;86397;-86
2021/04/23 15:04:15;;;;;;;163.52;156.88;;;27.30;23.30;;;;;;4989264;28;88018;-88
2021/04/23 15:06:41;;;;;;;126.70;121.18;;;27.10;23.00;;;;;;4976419;28;87412;-87
2021/04/23 15:09:08;;;;;;;156.75;150.25;;;27.00;23.40;;;;;;4978163;28;86625;-88
2021/04/23 15:11:34;;;;;;;215.45;206.35;;;26.80;23.30;;;;;;4978417;28;86264;-87
2021/04/23 15:14:00;;;;;;;50.35;47.97;;;26.40;23.40;;;;;;4978094;28;86773;-87
2021/04/23 15:16:27;;;;;;;160.93;154.57;;;26.10;23.50;;;;;;4981142;28;87375;-89
2021/04/23 15:18:52;;;;;;;305.05;293.65;;;26.10;23.90;;;;;;4978675;28;86558;-87
2021/04/23 15:21:18;;;;;;;259.17;249.38;;;25.80;24.50;;;;;;4976820;28;86328;-87
2021/04/23 15:23:44;;;;;;;263.00;253.27;;;25.70;24.10;;;;;;4972621;28;88216;-90
2021/04/23 15:26:10;;;;;;;124.20;119.10;;;25.30;24.00;;;;;;4972099;28;86780;-86
2021/04/23 15:28:36;;;;;;;85.93;82.43;;;25.10;24.40;;;;;;4968768;28;87778;-86
2021/04/23 15:31:02;;;;;;;34.58;32.88;;;25.10;24.50;;;;;;4969684;28;86535;-87
2021/04/23 15:33:29;;;;;;;60.83;57.80;;;25.00;25.50;;;;;;4968452;28;87460;-86
2021/04/23 15:35:56;;;;;;;65.20;62.40;;;24.70;25.60;;;;;;4968941;28;87354;-86
2021/04/23 15:38:22;;;;;;;68.10;65.15;;;24.70;25.00;;;;;;4969656;28;86947;-86
2021/04/23 15:40:51;;;;;;;71.53;68.22;;;24.50;25.20;;;;;;4970361;28;87015;-88
2021/04/23 15:43:18;;;;;;;66.43;63.17;;;24.40;24.90;;;;;;4955664;28;86876;-87
2021/04/23 15:45:52;;;;;;;49.08;46.88;;;24.20;24.60;;;;;;4968132;28;86298;-88
2021/04/23 15:48:19;;;;;;;80.72;77.18;;;24.20;25.20;;;;;;4968309;28;86783;-89
2021/04/23 15:50:58;;;;;;;73.13;70.07;;;24.10;24.80;;;;;;4970075;28;86943;-87
2021/04/23 15:53:26;;;;;;;35.53;33.92;;;24.10;24.60;;;;;;4963790;28;88094;-87
2021/04/23 15:55:52;;;;;;;77.18;73.97;;;23.90;24.30;;;;;;4958734;28;89351;-88
2021/04/23 15:58:18;;;;;;;52.38;49.88;;;23.90;25.00;;;;;;4968551;28;86217;-89
2021/04/23 16:00:45;;;;;;;47.33;45.03;;;23.50;24.20;;;;;;4966970;28;86901;-87
2021/04/23 16:03:11;;;;;;;38.22;36.45;;;23.40;25.10;;;;;;4966419;28;88270;-87
2021/04/23 16:05:37;;;;;;;33.47;31.85;;;23.40;25.00;;;;;;4975183;28;87169;-87
2021/04/23 16:08:04;;;;;;;29.83;28.00;;;23.00;26.30;;;;;;4967213;28;86957;-88
2021/04/23 16:10:29;;;;;;;28.50;27.17;;;22.90;27.10;;;;;;4966818;28;86227;-86
2021/04/23 16:12:55;;;;;;;41.15;39.25;;;22.80;26.70;;;;;;4969080;28;86942;-85
2021/04/23 16:15:24;;;;;;;26.52;24.95;;;22.60;26.20;;;;;;4970558;28;87406;-86
2021/04/23 16:17:52;;;;;;;61.03;58.28;;;22.50;27.60;;;;;;4966556;28;87612;-86
2021/04/23 16:20:19;;;;;;;31.58;29.88;;;22.40;27.20;;;;;;4966935;28;86524;-88
2021/04/23 16:22:47;;;;;;;20.30;19.05;;;22.10;27.80;;;;;;4968591;28;86848;-88
2021/04/23 16:25:13;;;;;;;18.58;17.50;;;21.70;27.20;;;;;;4966131;28;87355;-86
2021/04/23 16:27:39;;;;;;;24.55;23.02;;;21.80;28.90;;;;;;4968008;28;86816;-86
2021/04/23 16:30:08;;;;;;;30.25;28.75;;;21.80;28.20;;;;;;4968209;28;87217;-86
2021/04/23 16:32:35;;;;;;;103.35;98.90;;;21.60;28.50;;;;;;4969016;28;87218;-87
2021/04/23 16:35:02;;;;;;;95.93;91.55;;;21.00;27.70;;;;;;4957792;28;86449;-85
2021/04/23 16:37:27;;;;;;;113.38;108.15;;;21.30;28.10;;;;;;4967994;28;86811;-86
2021/04/23 16:39:53;;;;;;;63.63;60.80;;;21.10;28.00;;;;;;4967569;28;87642;-86
2021/04/23 16:42:19;;;;;;;80.35;76.72;;;20.90;28.30;;;;;;4970854;28;88162;-86
2021/04/23 16:44:44;;;;;;;113.63;108.80;;;20.80;28.20;;;;;;4969062;28;88070;-86
2021/04/23 16:47:10;;;;;;;84.85;81.00;;;;;;;;;;4969860;28;86884;-88
2021/04/23 16:49:37;;;;;;;132.32;126.63;;;20.50;27.10;;;;;;4958455;28;87026;-88
2021/04/23 16:52:04;;;;;;;55.05;52.42;;;20.40;27.80;;;;;;4967494;28;87633;-87
2021/04/23 16:54:29;;;;;;;40.28;38.45;;;20.30;27.90;;;;;;4959808;28;87079;-87
2021/04/23 16:56:56;;;;;;;41.83;39.90;;;;;;;;;;4973366;28;86472;-87
2021/04/23 16:59:21;;;;;;;55.08;52.50;;;20.00;26.90;;;;;;4973686;28;86012;-88
2021/04/23 17:01:51;;;;;;;54.00;51.63;;;;;;;;;;4970861;28;86666;-88
2021/04/23 17:04:22;;;;;;;73.00;69.70;;;19.60;26.80;;;;;;4958687;28;88596;-87
2021/04/23 17:06:49;;;;;;;23.45;22.02;;;19.40;27.10;;;;;;4967904;28;87639;-90
2021/04/23 17:09:15;;;;;;;15.38;14.18;;;19.50;29.10;;;;;;4970941;28;86749;-86
2021/04/23 17:11:41;;;;;;;28.33;26.70;;;;;;;;;;4983186;28;87772;-86
2021/04/23 17:14:07;;;;;;;24.90;23.40;;;18.80;28.50;;;;;;4958203;28;87530;-87
2021/04/23 17:16:33;;;;;;;31.00;29.25;;;;;;;;;;4971776;28;86456;-88
2021/04/23 17:18:58;;;;;;;46.50;43.90;;;19.10;29.20;;;;;;4978415;28;86561;-90
2021/04/23 17:21:24;;;;;;;49.08;46.60;;;18.70;29.30;;;;;;4974044;28;88244;-89
2021/04/23 17:23:50;;;;;;;50.20;47.78;;;;;;;;;;4972134;28;88082;-87
2021/04/23 17:26:16;;;;;;;39.80;37.65;;;18.60;29.20;;;;;;4950300;28;86613;-87
2021/04/23 17:28:42;;;;;;;22.73;21.27;;;18.60;30.70;;;;;;4957169;28;86913;-86
2021/04/23 17:31:09;;;;;;;37.00;35.05;;;;;;;;;;4953841;28;87995;-87
2021/04/23 17:33:35;;;;;;;41.42;39.17;;;18.20;30.20;;;;;;4969939;28;88371;-87
2021/04/23 17:36:01;;;;;;;21.63;20.40;;;17.80;30.40;;;;;;4955745;28;86930;-88
2021/04/23 17:38:27;;;;;;;18.63;17.38;;;;;;;;;;4975203;28;86838;-88
2021/04/23 17:40:52;;;;;;;14.85;13.95;;;17.90;32.60;;;;;;4966189;28;88644;-88
2021/04/23 17:43:20;;;;;;;23.75;22.30;;;;;;;;;;4968544;28;87939;-86
2021/04/23 17:45:47;;;;;;;20.17;18.92;;;16.90;34.10;;;;;;4972006;28;86791;-86
2021/04/23 17:48:13;;;;;;;20.67;19.42;;;17.30;34.00;;;;;;4972519;28;85937;-87
2021/04/23 17:50:40;;;;;;;16.30;15.30;;;17.20;34.10;;;;;;4971748;28;86902;-88
2021/04/23 17:53:06;;;;;;;22.17;20.98;;;17.30;34.40;;;;;;4980869;28;87105;-90
2021/04/23 17:55:32;;;;;;;38.28;36.28;;;16.80;35.80;;;;;;4975829;28;87100;-87
2021/04/23 17:57:58;;;;;;;29.65;27.92;;;16.20;35.60;;;;;;4967708;28;86964;-90
2021/04/23 18:00:33;;;;;;;24.65;23.02;;;16.50;36.50;;;;;;4979994;28;87677;-86
2021/04/23 18:03:00;;;;;;;22.65;21.38;;;16.60;38.40;;;;;;4982965;28;86223;-86
2021/04/23 18:05:27;;;;;;;19.92;18.85;;;16.20;39.10;;;;;;4983051;28;86678;-86
2021/04/23 18:07:55;;;;;;;19.67;18.33;;;16.10;37.90;;;;;;4983112;28;86203;-87
2021/04/23 18:10:22;;;;;;;18.05;16.80;;;15.60;38.80;;;;;;4979747;28;86360;-88
2021/04/23 18:12:48;;;;;;;19.02;17.92;;;15.80;38.30;;;;;;4972830;28;87153;-87